Shoeburyness, United Kingdom
Current Conditions -  °F | °C
As of 11:50 AM on Thursday 30 Oct 2014 (Local Time) from EGMC Reporting Station
Few Clouds Few Clouds  
Wind Chill: 64°   Ceiling: Unl
Heat Index: 64°   Visibility: 4mi
Dew Point: 57°   Wind: 12mph
Humidity: 77%   Direction: 220°SW
Pressure: 30.06"   Gusts: NA
Location:  51.55°N, 0.83°E
Report Text: EGMC 301150Z 22010KT 7000 FEW013 18/14 Q1018
Loading
Personal Weather Stations






























Interactive Weather Map
Tropical Storm Tracking
New forecast layout! Learn more

10-Day Weather Forecast

Advertisements
Track Severe Weather on mobile